sensor_id;sensor_type;location;lat;lon;timestamp;pressure;altitude;pressure_sealevel;temperature;humidity
22031;BME280;11179;52.106;21.024;2023-04-26T00:02:22;99617.81;;;7.69;69.79
22031;BME280;11179;52.106;21.024;2023-04-26T00:04:53;99629.34;;;7.76;69.46
22031;BME280;11179;52.106;21.024;2023-04-26T00:07:21;99629.84;;;7.73;69.30
22031;BME280;11179;52.106;21.024;2023-04-26T00:09:49;99645.41;;;7.73;69.18
22031;BME280;11179;52.106;21.024;2023-04-26T00:12:14;99652.25;;;7.70;69.09
22031;BME280;11179;52.106;21.024;2023-04-26T00:14:39;99656.31;;;7.68;68.91
22031;BME280;11179;52.106;21.024;2023-04-26T00:17:05;99655.72;;;7.65;68.88
22031;BME280;11179;52.106;21.024;2023-04-26T00:19:30;99633.56;;;7.62;68.72
22031;BME280;11179;52.106;21.024;2023-04-26T00:21:56;99648.09;;;7.68;68.53
22031;BME280;11179;52.106;21.024;2023-04-26T00:24:21;99659.06;;;7.73;68.63
22031;BME280;11179;52.106;21.024;2023-04-26T00:26:47;99665.94;;;7.75;68.83
22031;BME280;11179;52.106;21.024;2023-04-26T00:29:12;99662.94;;;7.77;68.69
22031;BME280;11179;52.106;21.024;2023-04-26T00:31:37;99661.25;;;7.71;68.85
22031;BME280;11179;52.106;21.024;2023-04-26T00:34:03;99664.25;;;7.69;68.70
22031;BME280;11179;52.106;21.024;2023-04-26T00:36:28;99668.56;;;7.65;69.04
22031;BME280;11179;52.106;21.024;2023-04-26T00:38:53;99665.59;;;7.67;69.12
22031;BME280;11179;52.106;21.024;2023-04-26T00:41:19;99668.31;;;7.67;69.04
22031;BME280;11179;52.106;21.024;2023-04-26T00:43:44;99663.81;;;7.55;68.99
22031;BME280;11179;52.106;21.024;2023-04-26T00:46:10;99679.44;;;7.60;69.15
22031;BME280;11179;52.106;21.024;2023-04-26T00:48:36;99678.31;;;7.56;68.88
22031;BME280;11179;52.106;21.024;2023-04-26T00:51:02;99672.44;;;7.47;69.05
22031;BME280;11179;52.106;21.024;2023-04-26T00:53:29;99683.44;;;7.52;68.78
22031;BME280;11179;52.106;21.024;2023-04-26T00:55:55;99691.56;;;7.47;68.76
22031;BME280;11179;52.106;21.024;2023-04-26T00:58:20;99693.47;;;7.47;68.82
22031;BME280;11179;52.106;21.024;2023-04-26T01:00:45;99691.56;;;7.47;68.67
22031;BME280;11179;52.106;21.024;2023-04-26T01:03:11;99690.75;;;7.47;68.84
22031;BME280;11179;52.106;21.024;2023-04-26T01:05:37;99682.50;;;7.42;68.78
22031;BME280;11179;52.106;21.024;2023-04-26T01:08:03;99678.13;;;7.41;68.62
22031;BME280;11179;52.106;21.024;2023-04-26T01:10:31;99689.63;;;7.43;68.59
22031;BME280;11179;52.106;21.024;2023-04-26T01:12:57;99692.84;;;7.40;68.84
22031;BME280;11179;52.106;21.024;2023-04-26T01:15:22;99696.72;;;7.44;68.91
22031;BME280;11179;52.106;21.024;2023-04-26T01:17:48;99698.63;;;7.43;68.79
22031;BME280;11179;52.106;21.024;2023-04-26T01:20:14;99704.09;;;7.43;68.52
22031;BME280;11179;52.106;21.024;2023-04-26T01:22:40;99692.19;;;7.33;68.70
22031;BME280;11179;52.106;21.024;2023-04-26T01:25:06;99699.72;;;7.42;68.77
22031;BME280;11179;52.106;21.024;2023-04-26T01:27:33;99698.56;;;7.38;68.84
22031;BME280;11179;52.106;21.024;2023-04-26T01:29:59;99705.19;;;7.42;68.91
22031;BME280;11179;52.106;21.024;2023-04-26T01:32:25;99705.19;;;7.42;68.95
22031;BME280;11179;52.106;21.024;2023-04-26T01:34:50;99709.75;;;7.37;68.76
22031;BME280;11179;52.106;21.024;2023-04-26T01:37:16;99715.94;;;7.32;68.92
22031;BME280;11179;52.106;21.024;2023-04-26T01:39:41;99710.44;;;7.27;68.97
22031;BME280;11179;52.106;21.024;2023-04-26T01:42:06;99716.72;;;7.27;69.18
22031;BME280;11179;52.106;21.024;2023-04-26T01:44:32;99712.00;;;7.23;68.75
22031;BME280;11179;52.106;21.024;2023-04-26T01:46:57;99718.63;;;7.27;68.93
22031;BME280;11179;52.106;21.024;2023-04-26T01:49:22;99718.38;;;7.28;69.21
22031;BME280;11179;52.106;21.024;2023-04-26T01:51:48;99723.84;;;7.28;69.03
22031;BME280;11179;52.106;21.024;2023-04-26T01:54:13;99708.19;;;7.24;69.14
22031;BME280;11179;52.106;21.024;2023-04-26T01:56:38;99704.59;;;7.18;69.03
22031;BME280;11179;52.106;21.024;2023-04-26T01:59:04;99720.16;;;7.18;69.08
22031;BME280;11179;52.106;21.024;2023-04-26T02:01:29;99720.66;;;7.15;69.06
22031;BME280;11179;52.106;21.024;2023-04-26T02:03:55;99701.94;;;7.07;69.01
22031;BME280;11179;52.106;21.024;2023-04-26T02:06:20;99718.41;;;7.12;69.06
22031;BME280;11179;52.106;21.024;2023-04-26T02:08:45;99720.06;;;7.13;69.11
22031;BME280;11179;52.106;21.024;2023-04-26T02:11:11;99725.03;;;7.16;69.19
22031;BME280;11179;52.106;21.024;2023-04-26T02:13:36;99719.47;;;7.11;69.15
22031;BME280;11179;52.106;21.024;2023-04-26T02:16:02;99712.38;;;7.10;69.18
22031;BME280;11179;52.106;21.024;2023-04-26T02:18:28;99727.75;;;7.16;69.07
22031;BME280;11179;52.106;21.024;2023-04-26T02:20:53;99723.03;;;7.11;69.35
22031;BME280;11179;52.106;21.024;2023-04-26T02:23:19;99719.47;;;7.11;69.06
22031;BME280;11179;52.106;21.024;2023-04-26T02:25:45;99725.28;;;7.14;69.12
22031;BME280;11179;52.106;21.024;2023-04-26T02:28:14;99728.59;;;7.16;69.30
22031;BME280;11179;52.106;21.024;2023-04-26T02:30:40;99719.47;;;7.11;69.43
22031;BME280;11179;52.106;21.024;2023-04-26T02:33:06;99728.06;;;7.19;69.59
22031;BME280;11179;52.106;21.024;2023-04-26T02:35:33;99729.72;;;7.20;69.33
22031;BME280;11179;52.106;21.024;2023-04-26T02:37:58;99724.78;;;7.17;69.43
22031;BME280;11179;52.106;21.024;2023-04-26T02:40:23;99723.13;;;7.16;69.37
22031;BME280;11179;52.106;21.024;2023-04-26T02:42:49;99727.50;;;7.17;69.47
22031;BME280;11179;52.106;21.024;2023-04-26T02:45:14;99732.69;;;7.19;69.70
22031;BME280;11179;52.106;21.024;2023-04-26T02:47:39;99719.56;;;7.16;69.32
22031;BME280;11179;52.106;21.024;2023-04-26T02:50:06;99720.66;;;7.15;69.47
22031;BME280;11179;52.106;21.024;2023-04-26T02:52:32;99728.50;;;7.11;69.51
22031;BME280;11179;52.106;21.024;2023-04-26T02:54:58;99733.38;;;7.09;69.25
22031;BME280;11179;52.106;21.024;2023-04-26T02:57:23;99739.66;;;7.10;69.22
22031;BME280;11179;52.106;21.024;2023-04-26T02:59:48;99726.50;;;7.07;69.49
22031;BME280;11179;52.106;21.024;2023-04-26T03:02:14;99722.72;;;7.08;69.60
22031;BME280;11179;52.106;21.024;2023-04-26T03:04:40;99738.69;;;7.16;69.49
22031;BME280;11179;52.106;21.024;2023-04-26T03:07:06;99737.59;;;7.17;69.25
22031;BME280;11179;52.106;21.024;2023-04-26T03:09:31;99736.44;;;7.13;69.32
22031;BME280;11179;52.106;21.024;2023-04-26T03:11:58;99747.63;;;7.11;69.08
22031;BME280;11179;52.106;21.024;2023-04-26T03:14:23;99734.69;;;7.07;69.10
22031;BME280;11179;52.106;21.024;2023-04-26T03:16:49;99722.00;;;6.96;68.99
22031;BME280;11179;52.106;21.024;2023-04-26T03:19:14;99723.84;;;6.90;69.21
22031;BME280;11179;52.106;21.024;2023-04-26T03:21:39;99724.00;;;6.83;69.01
22031;BME280;11179;52.106;21.024;2023-04-26T03:24:05;99732.91;;;6.79;69.07
22031;BME280;11179;52.106;21.024;2023-04-26T03:26:31;99725.16;;;6.71;68.77
22031;BME280;11179;52.106;21.024;2023-04-26T03:28:57;99735.19;;;6.65;68.69
22031;BME280;11179;52.106;21.024;2023-04-26T03:31:22;99744.91;;;6.61;68.82
22031;BME280;11179;52.106;21.024;2023-04-26T03:33:48;99740.44;;;6.55;68.65
22031;BME280;11179;52.106;21.024;2023-04-26T03:36:13;99742.50;;;6.48;68.66
22031;BME280;11179;52.106;21.024;2023-04-26T03:38:39;99747.47;;;6.51;68.53
22031;BME280;11179;52.106;21.024;2023-04-26T03:41:04;99731.69;;;6.36;68.50
22031;BME280;11179;52.106;21.024;2023-04-26T03:43:29;99751.41;;;6.43;68.21
22031;BME280;11179;52.106;21.024;2023-04-26T03:45:55;99752.75;;;6.41;68.56
22031;BME280;11179;52.106;21.024;2023-04-26T03:48:20;99745.31;;;6.36;68.59
22031;BME280;11179;52.106;21.024;2023-04-26T03:50:45;99750.28;;;6.28;68.43
22031;BME280;11179;52.106;21.024;2023-04-26T03:53:11;99744.25;;;6.26;68.64
22031;BME280;11179;52.106;21.024;2023-04-26T03:55:37;99746.19;;;6.25;68.65
22031;BME280;11179;52.106;21.024;2023-04-26T03:58:02;99750.28;;;6.28;68.46
22031;BME280;11179;52.106;21.024;2023-04-26T04:00:38;99755.75;;;6.28;68.29
22031;BME280;11179;52.106;21.024;2023-04-26T04:03:05;99753.53;;;6.25;68.19
22031;BME280;11179;52.106;21.024;2023-04-26T04:05:30;99752.19;;;6.27;68.30
22031;BME280;11179;52.106;21.024;2023-04-26T04:07:56;99748.63;;;6.27;68.29
22031;BME280;11179;52.106;21.024;2023-04-26T04:10:22;99759.00;;;6.41;68.22
22031;BME280;11179;52.106;21.024;2023-04-26T04:12:48;99763.34;;;6.54;68.20
22031;BME280;11179;52.106;21.024;2023-04-26T04:15:13;99756.56;;;6.73;67.84
22031;BME280;11179;52.106;21.024;2023-04-26T04:17:39;99769.63;;;7.05;67.90
22031;BME280;11179;52.106;21.024;2023-04-26T04:20:05;99770.72;;;7.42;67.61
22031;BME280;11179;52.106;21.024;2023-04-26T04:22:31;99776.78;;;7.88;66.89
22031;BME280;11179;52.106;21.024;2023-04-26T04:24:57;99771.19;;;8.21;66.10
22031;BME280;11179;52.106;21.024;2023-04-26T04:27:23;99753.44;;;8.56;65.60
22031;BME280;11179;52.106;21.024;2023-04-26T04:29:49;99768.00;;;8.93;65.01
22031;BME280;11179;52.106;21.024;2023-04-26T04:32:15;99769.91;;;9.30;64.24
22031;BME280;11179;52.106;21.024;2023-04-26T04:34:41;99765.72;;;9.64;63.35
22031;BME280;11179;52.106;21.024;2023-04-26T04:37:07;99768.38;;;10.01;62.47
22031;BME280;11179;52.106;21.024;2023-04-26T04:39:33;99772.84;;;10.23;61.63
22031;BME280;11179;52.106;21.024;2023-04-26T04:41:58;99759.13;;;10.33;61.22
22031;BME280;11179;52.106;21.024;2023-04-26T04:44:24;99758.88;;;10.44;59.90
22031;BME280;11179;52.106;21.024;2023-04-26T04:46:51;99778.09;;;10.49;59.64
22031;BME280;11179;52.106;21.024;2023-04-26T04:49:16;99767.41;;;10.73;59.11
22031;BME280;11179;52.106;21.024;2023-04-26T04:51:43;99783.06;;;11.18;58.16
22031;BME280;11179;52.106;21.024;2023-04-26T04:56:35;99775.03;;;11.68;56.50
22031;BME280;11179;52.106;21.024;2023-04-26T04:59:00;99791.16;;;11.89;55.85
22031;BME280;11179;52.106;21.024;2023-04-26T05:01:26;99790.25;;;12.09;55.15
22031;BME280;11179;52.106;21.024;2023-04-26T05:03:51;99791.03;;;12.20;54.77
22031;BME280;11179;52.106;21.024;2023-04-26T05:06:16;99793.72;;;12.35;54.05
22031;BME280;11179;52.106;21.024;2023-04-26T05:08:41;99799.75;;;12.37;52.99
22031;BME280;11179;52.106;21.024;2023-04-26T05:11:07;99809.94;;;12.42;52.98
22031;BME280;11179;52.106;21.024;2023-04-26T05:13:32;99810.06;;;12.66;52.61
22031;BME280;11179;52.106;21.024;2023-04-26T05:15:57;99804.72;;;12.79;52.20
22031;BME280;11179;52.106;21.024;2023-04-26T05:18:23;99808.00;;;12.86;51.38
22031;BME280;11179;52.106;21.024;2023-04-26T05:20:48;99810.00;;;12.76;50.57
22031;BME280;11179;52.106;21.024;2023-04-26T05:23:13;99813.06;;;12.69;50.10
22031;BME280;11179;52.106;21.024;2023-04-26T05:25:39;99822.25;;;12.93;49.93
22031;BME280;11179;52.106;21.024;2023-04-26T05:28:04;99824.59;;;13.15;49.18
22031;BME280;11179;52.106;21.024;2023-04-26T05:30:30;99815.88;;;13.32;48.75
22031;BME280;11179;52.106;21.024;2023-04-26T05:32:55;99826.63;;;13.62;48.27
22031;BME280;11179;52.106;21.024;2023-04-26T05:35:21;99828.81;;;13.65;47.62
22031;BME280;11179;52.106;21.024;2023-04-26T05:37:46;99833.06;;;13.58;47.24
22031;BME280;11179;52.106;21.024;2023-04-26T05:40:12;99828.69;;;13.47;47.47
22031;BME280;11179;52.106;21.024;2023-04-26T05:42:37;99830.56;;;13.56;46.93
22031;BME280;11179;52.106;21.024;2023-04-26T05:45:03;99817.00;;;13.60;46.65
22031;BME280;11179;52.106;21.024;2023-04-26T05:47:29;99823.94;;;13.57;46.41
22031;BME280;11179;52.106;21.024;2023-04-26T05:49:54;99814.97;;;13.71;45.99
22031;BME280;11179;52.106;21.024;2023-04-26T05:52:20;99823.25;;;13.94;45.36
22031;BME280;11179;52.106;21.024;2023-04-26T05:54:45;99831.69;;;14.27;44.94
22031;BME280;11179;52.106;21.024;2023-04-26T05:57:11;99837.97;;;14.51;44.45
22031;BME280;11179;52.106;21.024;2023-04-26T05:59:36;99828.72;;;14.42;44.38
22031;BME280;11179;52.106;21.024;2023-04-26T06:02:02;99832.59;;;14.41;44.43
22031;BME280;11179;52.106;21.024;2023-04-26T06:04:28;99827.03;;;14.65;43.69
22031;BME280;11179;52.106;21.024;2023-04-26T06:06:54;99833.66;;;14.45;43.19
22031;BME280;11179;52.106;21.024;2023-04-26T06:09:20;99834.84;;;14.39;43.29
22031;BME280;11179;52.106;21.024;2023-04-26T06:11:45;99831.75;;;14.83;42.81
22031;BME280;11179;52.106;21.024;2023-04-26T06:14:10;99823.75;;;15.33;42.39
22031;BME280;11179;52.106;21.024;2023-04-26T06:16:36;99827.22;;;15.57;41.69
22031;BME280;11179;52.106;21.024;2023-04-26T06:19:01;99839.06;;;15.90;41.35
22031;BME280;11179;52.106;21.024;2023-04-26T06:21:27;99835.59;;;15.98;41.20
22031;BME280;11179;52.106;21.024;2023-04-26T06:23:52;99834.16;;;16.28;40.28
22031;BME280;11179;52.106;21.024;2023-04-26T06:26:17;99836.38;;;16.40;40.06
22031;BME280;11179;52.106;21.024;2023-04-26T06:28:43;99816.59;;;16.60;39.41
22031;BME280;11179;52.106;21.024;2023-04-26T06:31:08;99818.31;;;16.92;39.27
22031;BME280;11179;52.106;21.024;2023-04-26T06:33:33;99831.03;;;17.29;38.68
22031;BME280;11179;52.106;21.024;2023-04-26T06:35:59;99834.31;;;17.53;38.13
22031;BME280;11179;52.106;21.024;2023-04-26T06:38:24;99835.88;;;17.68;37.31
22031;BME280;11179;52.106;21.024;2023-04-26T06:40:49;99840.13;;;17.74;37.19
22031;BME280;11179;52.106;21.024;2023-04-26T06:43:15;99819.97;;;17.60;37.16
22031;BME280;11179;52.106;21.024;2023-04-26T06:45:40;99837.59;;;17.55;37.00
22031;BME280;11179;52.106;21.024;2023-04-26T06:48:06;99844.19;;;17.68;36.62
22031;BME280;11179;52.106;21.024;2023-04-26T06:50:32;99834.63;;;17.83;35.77
22031;BME280;11179;52.106;21.024;2023-04-26T06:52:57;99840.94;;;17.44;36.36
22031;BME280;11179;52.106;21.024;2023-04-26T06:55:23;99845.00;;;17.46;36.49
22031;BME280;11179;52.106;21.024;2023-04-26T06:57:49;99843.88;;;17.47;36.05
22031;BME280;11179;52.106;21.024;2023-04-26T07:00:15;99828.72;;;17.76;35.72
22031;BME280;11179;52.106;21.024;2023-04-26T07:02:40;99838.81;;;18.11;35.26
22031;BME280;11179;52.106;21.024;2023-04-26T07:05:06;99839.38;;;18.31;34.74
22031;BME280;11179;52.106;21.024;2023-04-26T07:07:31;99833.53;;;17.92;34.97
22031;BME280;11179;52.106;21.024;2023-04-26T07:09:57;99836.28;;;17.84;34.92
22031;BME280;11179;52.106;21.024;2023-04-26T07:12:22;99839.53;;;17.86;34.82
22031;BME280;11179;52.106;21.024;2023-04-26T07:14:47;99855.66;;;18.06;34.24
22031;BME280;11179;52.106;21.024;2023-04-26T07:17:13;99846.72;;;18.26;33.74
22031;BME280;11179;52.106;21.024;2023-04-26T07:19:38;99852.56;;;18.64;33.53
22031;BME280;11179;52.106;21.024;2023-04-26T07:22:03;99852.59;;;19.08;33.20
22031;BME280;11179;52.106;21.024;2023-04-26T07:24:29;99842.81;;;19.27;32.51
22031;BME280;11179;52.106;21.024;2023-04-26T07:26:55;99832.50;;;19.19;32.04
22031;BME280;11179;52.106;21.024;2023-04-26T07:29:20;99860.31;;;19.45;31.77
22031;BME280;11179;52.106;21.024;2023-04-26T07:31:46;99856.59;;;19.88;31.55
22031;BME280;11179;52.106;21.024;2023-04-26T07:34:11;99848.97;;;19.67;31.32
22031;BME280;11179;52.106;21.024;2023-04-26T07:36:37;99850.78;;;19.63;31.33
22031;BME280;11179;52.106;21.024;2023-04-26T07:39:02;99855.41;;;19.33;31.37
22031;BME280;11179;52.106;21.024;2023-04-26T07:41:29;99857.59;;;18.45;32.15
22031;BME280;11179;52.106;21.024;2023-04-26T07:43:55;99849.88;;;17.63;32.94
22031;BME280;11179;52.106;21.024;2023-04-26T07:46:20;99866.06;;;17.03;33.49
22031;BME280;11179;52.106;21.024;2023-04-26T07:48:46;99878.88;;;16.49;34.00
22031;BME280;11179;52.106;21.024;2023-04-26T07:51:12;99877.03;;;16.17;34.60
22031;BME280;11179;52.106;21.024;2023-04-26T07:53:38;99880.19;;;15.83;35.04
22031;BME280;11179;52.106;21.024;2023-04-26T07:56:05;99887.13;;;15.48;35.57
22031;BME280;11179;52.106;21.024;2023-04-26T07:58:32;99879.34;;;15.50;35.83
22031;BME280;11179;52.106;21.024;2023-04-26T08:00:58;99879.56;;;15.86;35.30
22031;BME280;11179;52.106;21.024;2023-04-26T08:03:23;99884.63;;;16.66;34.67
22031;BME280;11179;52.106;21.024;2023-04-26T08:05:49;99874.75;;;17.10;33.86
22031;BME280;11179;52.106;21.024;2023-04-26T08:08:14;99875.72;;;17.72;33.73
22031;BME280;11179;52.106;21.024;2023-04-26T08:10:40;99877.16;;;17.92;33.18
22031;BME280;11179;52.106;21.024;2023-04-26T08:13:06;99887.25;;;17.57;33.33
22031;BME280;11179;52.106;21.024;2023-04-26T08:15:32;99897.19;;;17.00;33.91
22031;BME280;11179;52.106;21.024;2023-04-26T08:17:57;99899.09;;;16.22;34.67
22031;BME280;11179;52.106;21.024;2023-04-26T08:20:23;99897.41;;;15.61;35.10
22031;BME280;11179;52.106;21.024;2023-04-26T08:22:48;99893.53;;;15.11;35.56
22031;BME280;11179;52.106;21.024;2023-04-26T08:25:14;99893.69;;;14.63;35.86
22031;BME280;11179;52.106;21.024;2023-04-26T08:27:39;99890.16;;;14.34;36.46
22031;BME280;11179;52.106;21.024;2023-04-26T08:30:05;99884.66;;;14.10;36.38
22031;BME280;11179;52.106;21.024;2023-04-26T08:32:31;99896.13;;;13.93;36.41
22031;BME280;11179;52.106;21.024;2023-04-26T08:34:58;99893.94;;;13.90;36.17
22031;BME280;11179;52.106;21.024;2023-04-26T08:37:23;99895.34;;;13.59;36.64
22031;BME280;11179;52.106;21.024;2023-04-26T08:39:49;99907.09;;;13.36;37.05
22031;BME280;11179;52.106;21.024;2023-04-26T08:42:15;99905.34;;;13.16;37.27
22031;BME280;11179;52.106;21.024;2023-04-26T08:44:43;99915.13;;;12.93;37.48
22031;BME280;11179;52.106;21.024;2023-04-26T08:47:15;99909.47;;;12.69;37.60
22031;BME280;11179;52.106;21.024;2023-04-26T08:49:46;99910.91;;;12.56;38.13
22031;BME280;11179;52.106;21.024;2023-04-26T08:52:13;99894.72;;;12.45;38.42
22031;BME280;11179;52.106;21.024;2023-04-26T08:54:41;99914.81;;;12.50;38.50
22031;BME280;11179;52.106;21.024;2023-04-26T08:57:07;99916.75;;;12.40;38.79
22031;BME280;11179;52.106;21.024;2023-04-26T08:59:36;99917.31;;;12.42;38.95
22031;BME280;11179;52.106;21.024;2023-04-26T09:02:06;99917.03;;;12.28;39.33
22031;BME280;11179;52.106;21.024;2023-04-26T09:04:34;99919.25;;;12.26;39.09
22031;BME280;11179;52.106;21.024;2023-04-26T09:07:02;99899.75;;;12.12;38.96
22031;BME280;11179;52.106;21.024;2023-04-26T09:09:32;99922.88;;;12.21;39.02
22031;BME280;11179;52.106;21.024;2023-04-26T09:11:59;99921.50;;;12.14;38.83
22031;BME280;11179;52.106;21.024;2023-04-26T09:14:26;99914.38;;;12.03;39.04
22031;BME280;11179;52.106;21.024;2023-04-26T09:16:51;99927.75;;;12.50;38.83
22031;BME280;11179;52.106;21.024;2023-04-26T09:19:17;99930.03;;;12.87;38.55
22031;BME280;11179;52.106;21.024;2023-04-26T09:21:44;99925.09;;;12.84;38.51
22031;BME280;11179;52.106;21.024;2023-04-26T09:24:11;99922.53;;;12.48;38.68
22031;BME280;11179;52.106;21.024;2023-04-26T09:26:36;99940.16;;;12.37;38.61
22031;BME280;11179;52.106;21.024;2023-04-26T09:31:38;99934.69;;;12.12;39.12
22031;BME280;11179;52.106;21.024;2023-04-26T09:34:04;99945.16;;;12.15;38.61
22031;BME280;11179;52.106;21.024;2023-04-26T09:36:29;99941.88;;;12.08;38.16
22031;BME280;11179;52.106;21.024;2023-04-26T09:38:55;99936.97;;;11.95;38.04
22031;BME280;11179;52.106;21.024;2023-04-26T09:41:21;99940.00;;;11.78;38.19
22031;BME280;11179;52.106;21.024;2023-04-26T09:43:49;99949.66;;;11.55;38.37
22031;BME280;11179;52.106;21.024;2023-04-26T09:46:21;99947.13;;;11.33;38.38
22031;BME280;11179;52.106;21.024;2023-04-26T09:48:59;99954.84;;;11.26;38.41
22031;BME280;11179;52.106;21.024;2023-04-26T09:51:25;99947.41;;;11.22;38.53
22031;BME280;11179;52.106;21.024;2023-04-26T09:53:51;99952.91;;;11.27;38.48
22031;BME280;11179;52.106;21.024;2023-04-26T09:56:18;99944.13;;;11.45;38.56
22031;BME280;11179;52.106;21.024;2023-04-26T10:01:18;99928.09;;;12.23;37.66
22031;BME280;11179;52.106;21.024;2023-04-26T10:03:44;99943.97;;;12.56;37.45
22031;BME280;11179;52.106;21.024;2023-04-26T10:06:13;99937.53;;;13.20;37.24
22031;BME280;11179;52.106;21.024;2023-04-26T10:08:38;99933.56;;;13.76;36.22
22031;BME280;11179;52.106;21.024;2023-04-26T10:11:05;99940.56;;;13.63;35.55
22031;BME280;11179;52.106;21.024;2023-04-26T10:13:37;99938.00;;;13.32;35.38
22031;BME280;11179;52.106;21.024;2023-04-26T10:16:03;99943.25;;;12.90;35.38
22031;BME280;11179;52.106;21.024;2023-04-26T10:18:30;99956.50;;;12.88;35.70
22031;BME280;11179;52.106;21.024;2023-04-26T10:20:59;99949.91;;;12.84;35.75
22031;BME280;11179;52.106;21.024;2023-04-26T10:23:25;99964.50;;;12.79;35.63
22031;BME280;11179;52.106;21.024;2023-04-26T10:25:51;99957.13;;;12.70;35.41
22031;BME280;11179;52.106;21.024;2023-04-26T10:28:18;99936.00;;;12.50;35.56
22031;BME280;11179;52.106;21.024;2023-04-26T10:31:03;99951.44;;;12.51;35.22
22031;BME280;11179;52.106;21.024;2023-04-26T10:33:29;99950.25;;;12.67;35.15
22031;BME280;11179;52.106;21.024;2023-04-26T10:36:09;99946.28;;;13.32;34.58
22031;BME280;11179;52.106;21.024;2023-04-26T10:38:37;99944.81;;;13.45;34.19
22031;BME280;11179;52.106;21.024;2023-04-26T10:41:27;99951.91;;;13.17;34.19
22031;BME280;11179;52.106;21.024;2023-04-26T10:43:54;99952.09;;;12.82;34.66
22031;BME280;11179;52.106;21.024;2023-04-26T10:46:37;99957.56;;;12.92;34.27
22031;BME280;11179;52.106;21.024;2023-04-26T10:49:14;99948.72;;;13.39;33.73
22031;BME280;11179;52.106;21.024;2023-04-26T10:51:39;99941.22;;;13.84;33.27
22031;BME280;11179;52.106;21.024;2023-04-26T10:54:06;99948.06;;;13.86;32.79
22031;BME280;11179;52.106;21.024;2023-04-26T10:59:10;99949.75;;;13.48;32.76
22031;BME280;11179;52.106;21.024;2023-04-26T11:01:36;99956.00;;;13.25;33.20
22031;BME280;11179;52.106;21.024;2023-04-26T11:04:07;99966.91;;;12.96;33.48
22031;BME280;11179;52.106;21.024;2023-04-26T11:06:54;99967.97;;;12.51;34.05
22031;BME280;11179;52.106;21.024;2023-04-26T11:09:38;99972.09;;;12.33;34.50
22031;BME280;11179;52.106;21.024;2023-04-26T11:12:15;99974.59;;;12.24;34.71
22031;BME280;11179;52.106;21.024;2023-04-26T11:14:41;99973.47;;;12.31;34.85
22031;BME280;11179;52.106;21.024;2023-04-26T11:17:10;99976.50;;;12.49;34.55
22031;BME280;11179;52.106;21.024;2023-04-26T11:19:36;99977.00;;;12.56;34.07
22031;BME280;11179;52.106;21.024;2023-04-26T11:22:05;99958.31;;;12.48;34.03
22031;BME280;11179;52.106;21.024;2023-04-26T11:24:32;99976.47;;;12.39;34.23
22031;BME280;11179;52.106;21.024;2023-04-26T11:26:57;99989.72;;;12.37;34.69
22031;BME280;11179;52.106;21.024;2023-04-26T11:29:24;99989.44;;;12.34;34.50
22031;BME280;11179;52.106;21.024;2023-04-26T11:31:53;99983.09;;;12.28;34.83
22031;BME280;11179;52.106;21.024;2023-04-26T11:34:30;99993.00;;;12.49;34.35
22031;BME280;11179;52.106;21.024;2023-04-26T11:36:56;99995.72;;;12.54;34.55
22031;BME280;11179;52.106;21.024;2023-04-26T11:39:21;100003.16;;;12.54;34.38
22031;BME280;11179;52.106;21.024;2023-04-26T11:41:47;100000.19;;;12.50;34.02
22031;BME280;11179;52.106;21.024;2023-04-26T11:44:17;99996.00;;;12.53;33.78
22031;BME280;11179;52.106;21.024;2023-04-26T11:46:43;99994.06;;;12.58;33.87
22031;BME280;11179;52.106;21.024;2023-04-26T11:49:08;99988.56;;;12.64;33.84
22031;BME280;11179;52.106;21.024;2023-04-26T11:51:35;99983.34;;;12.57;33.75
22031;BME280;11179;52.106;21.024;2023-04-26T11:54:00;99986.91;;;12.52;33.79
22031;BME280;11179;52.106;21.024;2023-04-26T11:56:25;99990.22;;;12.54;33.78
22031;BME280;11179;52.106;21.024;2023-04-26T11:58:51;99994.66;;;12.40;33.57
22031;BME280;11179;52.106;21.024;2023-04-26T12:01:23;100011.47;;;12.34;33.31
22031;BME280;11179;52.106;21.024;2023-04-26T12:03:57;100009.00;;;12.22;33.62
22031;BME280;11179;52.106;21.024;2023-04-26T12:06:43;100009.00;;;12.22;33.95
22031;BME280;11179;52.106;21.024;2023-04-26T12:09:08;100001.88;;;12.11;33.98
22031;BME280;11179;52.106;21.024;2023-04-26T12:11:35;100007.38;;;12.11;33.88
22031;BME280;11179;52.106;21.024;2023-04-26T12:14:00;100008.22;;;12.06;34.33
22031;BME280;11179;52.106;21.024;2023-04-26T12:16:26;100017.84;;;12.09;34.26
22031;BME280;11179;52.106;21.024;2023-04-26T12:18:53;100020.59;;;12.09;34.61
22031;BME280;11179;52.106;21.024;2023-04-26T12:21:19;100020.84;;;12.02;34.52
22031;BME280;11179;52.106;21.024;2023-04-26T12:23:44;100018.13;;;11.97;34.74
22031;BME280;11179;52.106;21.024;2023-04-26T12:26:12;100023.31;;;11.99;35.02
22031;BME280;11179;52.106;21.024;2023-04-26T12:28:38;100028.81;;;12.14;34.97
22031;BME280;11179;52.106;21.024;2023-04-26T12:31:03;100018.66;;;12.24;34.82
22031;BME280;11179;52.106;21.024;2023-04-26T12:33:29;100029.38;;;12.41;34.80
22031;BME280;11179;52.106;21.024;2023-04-26T12:35:55;100035.16;;;12.45;34.76
22031;BME280;11179;52.106;21.024;2023-04-26T12:38:22;100029.88;;;12.38;34.89
22031;BME280;11179;52.106;21.024;2023-04-26T12:40:47;100028.81;;;12.34;35.17
22031;BME280;11179;52.106;21.024;2023-04-26T12:43:13;100027.72;;;12.30;34.90
22031;BME280;11179;52.106;21.024;2023-04-26T12:45:39;100037.06;;;12.29;34.41
22031;BME280;11179;52.106;21.024;2023-04-26T12:48:05;100030.72;;;12.28;34.08
22031;BME280;11179;52.106;21.024;2023-04-26T12:50:30;100038.72;;;12.30;34.00
22031;BME280;11179;52.106;21.024;2023-04-26T12:52:56;100053.03;;;12.42;33.88
22031;BME280;11179;52.106;21.024;2023-04-26T12:55:33;100040.91;;;12.58;33.70
22031;BME280;11179;52.106;21.024;2023-04-26T12:57:59;100043.66;;;12.58;33.40
22031;BME280;11179;52.106;21.024;2023-04-26T13:00:25;100042.81;;;12.58;33.73